Main page
METAR-TAF:

Airports :

Bucharest, Romania

Henri Coandă International Airport

latitude: 44-33N, longitude: 026-06E, elevation: 95 m

Current weather observation

The report was made 27 minutes ago, at 15:30 UTC
Wind 7 kt from the East/Northeast
Temperature 33°C
Humidity 32%
Pressure 1013 hPa
Visibility 10 km or more
no clouds below 1500 m and no cumulonimbus

METAR: LROP 261530Z 07007KT CAVOK 33/14 Q1013 NOSIG

Time: 18:57 (15:57 UTC)

Forecast

The report was made 4 hours and 57 minutes ago, at 11:00 UTC
Forecast valid from 26 at 12 UTC to 27 at 12 UTC
Wind 7 kt from the East/Northeast
Visibility 10 km or more
no clouds below 1500 m and no cumulonimbus

TAF: LROP 261100Z 2612/2712 07007KT CAVOK

METAR-TAF

Weather observations and forecasts of more than 4000 airports (METAR and TAF reports).

The available stations are represented by yellow and red dots on the map.

Hover mouse over dot to see the name of the station.

Then click to see weather observations and forecasts.

To change the map : click on the green buttons with a black cross to zoom in, on the green button with a dash to zoom out, or on the green arrows for adjacent maps.


METAR-TAF: